EUROPE METAR - 23 Oct 2017 - 0948 UTC - RocketRoute WX - rrwx.com
EGPD 230920Z 16010KT 9999 VCSH SCT035 10/09 Q1009 TEMPO SHRA EGAA 230920Z 21009KT 9999 FEW006 SCT012 14/13 Q1009 EGKB 230920Z 20012KT 7000 3500SE BKN005 13/12 Q1018 EGHH 230920Z 23011KT 3000 -RA BR BKN004 15/14 Q1017 EGGD 230920Z AUTO 21007KT 9999 BKN004 BKN009 OVC013 13/13 Q1016 EGFF 230920Z AUTO 25006KT 9999 OVC012 15/14 Q1015 EGCN 230920Z 16007KT 9999 FEW007 SCT039 11/10 Q1015 EGNV 230920Z 18010KT 9999 8000W SCT015 11/08 Q1013 EGNX 230920Z 20011KT 9999 SCT007 BKN030 12/11 Q1015 EGPH 230920Z 25004KT 200V270 9999 BKN018 14/11 Q1009 EGTE 230920Z 20005KT 9999 FEW007 SCT020 15/14 Q1016 EGLF 230920Z 20009KT 5000 -RADZ BKN005 13/13 Q1017 EGPF 230920Z AUTO VRB02KT 3900 -DZ BKN005 OVC010 11/11 Q1009 REDZ EGJB 230920Z 22018KT 2000 -RADZ VCFG FEW000 BKN001 14/14 Q1019 EGNJ 230920Z 20012KT 9999 FEW035 11/10 Q1015 EGPE 230920Z VRB02KT 9999 FEW025 09/08 Q1006 EGJJ 230920Z 21014KT 3500 -DZ BR FEW002 BKN003 14/14 Q1020 EGPA 230920Z 16021KT 4500 RA FEW007 SCT015 BKN045 11/09 Q1006 EGNM 230920Z VRB03KT 9999 FEW009 SCT030 10/09 Q1014 EGGP 230920Z 15008KT 9999 SCT011 BKN038 12/12 Q1013 EGLC 230920Z AUTO 22007KT 190V290 9999 BKN013 BKN036 OVC048 14/11 Q1018 EGKK 230920Z 21006KT 6000 -DZRA BKN005 14/13 Q1018 REDZ EGLL 230920Z AUTO 20008KT 160V250 9999 BKN007 OVC025 13/12 Q1017 TEMPO 4000 -RADZ EGGW 230920Z AUTO 19006KT 160V220 9000 OVC004 11/10 Q1017 EGSS 230920Z AUTO 20007KT 9999 BKN010 OVC023 12/10 Q1018 EGMD 230920Z 23011KT 9999 FEW015 BKN023 BKN037 14/13 Q1019 EGCC 230920Z AUTO 18004KT 130V220 9999 BKN018 OVC045 12/11 Q1014 BECMG BKN010 EGMH   EGNT 230920Z 17004KT 140V200 9999 SCT020 10/08 Q1012 EGSH 230920Z 23010KT 9999 FEW020 SCT041 12/10 Q1017 NOSIG EGPK 230920Z 19006KT 170V230 9999 -RA FEW010 SCT020 14/12 Q1009 EGKA 230920Z 23011KT 2500 -RADZ BKN004 14/13 Q1018 EGHI 230920Z 20008KT 170V230 6000 -RADZ BKN005 14/13 Q1017 EGMC 230920Z 20006KT 9999 FEW023 BKN035 12/09 Q1018 EGPC 230920Z 16017KT 3500 RA SCT018 10/09 Q1006 LXGB 230850Z 07013KT 9999 SCT012 SCT028 20/17 Q1024 TEMPO FEW012 SCT028 EDDB 230920Z 25010KT 9999 BKN011 10/08 Q1015 BECMG BKN008 EDDW 230920Z 23017KT 9999 -RA BKN010 OVC017 11/09 Q1012 TEMPO SCT010 EDDC 230920Z 29009KT 250V320 9999 BKN015 BKN040 10/07 Q1016 NOSIG EDDL 230920Z AUTO 25011KT //// R23R/P2000N R23L/P2000N // ///////// 12/08 Q1018 NOSIG EDFH 230920Z 27009KT 240V310 9999 SCT003 BKN007 07/06 Q1020 EDDF 230920Z 22010KT 9999 FEW012 SCT045 BKN050 10/07 Q1020 NOSIG EDDH 230920Z 20009KT 6000 RA FEW006 BKN009 BKN013 11/10 Q1012 TEMPO 4000 EDDV 230920Z 24010KT 9999 -RA FEW013 BKN016 11/08 Q1014 NOSIG EDAH 230920Z 26007KT CAVOK 12/08 Q1014 EDSB 230920Z 21011KT 9999 FEW019 BKN055 10/08 Q1022 EDVK 230920Z 25009KT 9999 BKN024 OVC036 10/07 Q1017 EDDK 230920Z 25010KT 9999 FEW020 SCT032 BKN055 11/08 Q1019 NOSIG ETNL 230940Z 19005KT 4000 -DZ BR BKN003 10/09 Q1013 REDZ YLO YLO EDDP 230920Z 24011KT 9999 BKN013 10/08 Q1016 TEMPO 4500 RADZ EDHL 230920Z 20005KT 3900 RA BKN006 11/11 Q1012 EDDM 230920Z 28011KT 9999 FEW013 BKN016 08/05 Q1020 NOSIG EDDG 230920Z 23012KT 9999 SCT019TCU BKN040 11/08 Q1015 NOSIG EDDN 230920Z 27009KT 9999 -RADZ FEW009 BKN012 08/06 Q1019 NOSIG EDLP 230920Z 25012KT 220V290 9999 -DZ BKN016 11/07 Q1016 EDDR 230920Z 27010KT 9999 -RA SCT013 BKN045 10/07 Q1021 NOSIG EDDS 230920Z 27009KT 240V310 9999 BKN019 09/06 Q1021 NOSIG EDXW 230920Z 07012KT 9999 SCT003 BKN006 11/11 Q1011 EDDT 230920Z 23007KT 3200 -DZ BR BKN007 10/09 Q1015 NOSIG LFLB 230930Z AUTO VRB03KT 9999 BKN048 BKN062 12/07 Q1026 NOSIG LFBZ 230930Z AUTO 12003KT 080V170 CAVOK 17/11 Q1028 NOSIG LFLC 230930Z AUTO 32006KT 9999 FEW027 BKN039 OVC046 12/06 Q1026 NOSIG LFSB 230930Z 26011KT 9999 SCT013 BKN046 BKN083 11/08 Q1023 TEMPO 27010G20KT LFBL 230930Z AUTO 21004KT 190V260 CAVOK 10/09 Q1027 NOSIG LFBI 230930Z AUTO 20008KT 9999 BKN041 BKN048 OVC064 13/10 Q1026 NOSIG LFBO 230930Z AUTO 26004KT 190V290 9999 FEW019 OVC100 15/08 Q1027 NOSIG LFRB 230930Z AUTO 23016KT 190V250 5000 -DZ BR OVC004/// ///TCU 14/14 Q1021 TEMPO 22015G25KT OVC002 LFLY 230930Z AUTO 00000KT CAVOK 12/08 Q1026 NOSIG LFRK 230930Z AUTO 22010KT 9999 BKN012 OVC052 13/12 Q1022 TEMPO RA BECMG BKN015 LFMN 230930Z 32006KT CAVOK 20/M05 Q1015 NOSIG LFST 230930Z AUTO 21007KT 180V240 CAVOK 12/09 Q1022 NOSIG LFTW 230930Z AUTO 35014KT 320V030 CAVOK 17/03 Q1023 NOSIG LFRH 230930Z AUTO 23013KT 7000 -DZ BKN013 BKN020 OVC028 15/14 Q1023 TEMPO 3000 -RADZ BKN005 LFPB 230930Z AUTO 24007KT CAVOK 12/09 Q1023 NOSIG LFQQ 230930Z AUTO 22011KT 9999 FEW025 BKN054 OVC068 12/10 Q1020 TEMPO 4000 -RA BKN008 OVC020 LFAT 230930Z AUTO 25006KT 220V310 9999 BKN013 BKN020 OVC028 14/13 Q1020 TEMPO 2000 RADZ OVC005 LFMT 230930Z AUTO 32014KT CAVOK 17/04 Q1024 NOSIG LFBD 230930Z AUTO 20005KT 160V230 CAVOK 16/12 Q1027 NOSIG LFRS 230930Z AUTO 22006KT 190V250 CAVOK 16/13 Q1024 NOSIG LFKJ 230930Z 18004KT 110V250 9999 FEW023 20/08 Q1016 NOSIG LFPG 230930Z 23008KT 200V280 9999 FEW015 BKN053 12/10 Q1023 NOSIG LFPO 230930Z 24005KT 9999 FEW040 OVC060 12/09 Q1023 NOSIG LFRD 230930Z AUTO 20010KT 6000 -DZ BKN007 BKN011 BKN017 13/13 Q1022 TEMPO RA BECMG BKN015 LFKB 230930Z 31014G32KT 230V020 9999 FEW030 22/M00 Q1014 NOSIG LFML 230930Z AUTO 32025KT CAVOK 16/05 Q1021 TEMPO 33031G45KT LFMP 230930Z AUTO 32017KT 290V350 CAVOK 18/06 Q1025 TEMPO 32018G30KT LFLL 230930Z VRB02KT 9999 FEW009 SCT036 BKN066 11/07 Q1026 NOSIG LFRN 230930Z AUTO 19008KT 9999 FEW018 OVC047 14/13 Q1023 TEMPO RA LFOB 230930Z AUTO 24010KT 9999 FEW010 BKN052 OVC076 12/10 Q1022 TEMPO 4000 RA BKN008 BKN030 LFPN 230930Z AUTO 25009KT 9999 FEW038 BKN062 OVC084 12/09 Q1023 TEMPO 4000 -RADZ BKN008 LFOT 230930Z AUTO 23007KT 3800 -RA BR SCT017 BKN025 BKN035 12/10 Q1025 TEMPO BKN012 BECMG 9999 NSW EBBR 230920Z 25008KT 9999 FEW036 11/08 Q1020 NOSIG EBCI 230920Z 24009KT 9999 FEW011 11/08 Q1020 TEMPO BKN010 EBAW 230920Z 25009KT 9999 FEW020 13/09 Q1019 NOSIG EBLG 230920Z 24012KT CAVOK 11/07 Q1020 NOSIG EBOS 230920Z 21007KT 9999 SCT020 12/09 Q1019 BECMG BKN014 EHEH 230925Z AUTO 25013KT 200V300 9999 SCT015 BKN019 BKN027 13/09 Q1018 WHT 23012KT 9999 SCT016 SCT025 BKN045 EHGG 230925Z AUTO 26014KT 220V290 3400 -RADZ FEW005 BKN007 BKN010 12/11 Q1012 TEMPO 4000 -RADZ BKN010 EHBK 230925Z AUTO 24010KT 180V280 9999 FEW012 SCT016 12/08 Q1019 NOSIG EHRD 230925Z AUTO 27011KT 240V320 9999 FEW025 BKN041 BKN046 13/09 Q1017 NOSIG EHAM 230925Z 27017KT 240V300 9999 FEW024 SCT035 13/08 Q1016 NOSIG ELLX 230920Z 26010KT 9999 BKN010 09/07 Q1021 NOSIG LOWG 230920Z 32005KT 9999 SCT060 BKN110 11/05 Q1011 NOSIG LOWI 230920Z 08004KT 010V130 9999 RA FEW005 SCT010 BKN025 06/04 Q1020 TEMPO -RA LOWK 230920Z VRB01KT 9999 FEW006 SCT070 BKN200 08/05 Q1013 BECMG 36010KT LOWL 230920Z 28013KT 9999 SCT016 BKN037 09/06 Q1017 NOSIG LOWS 230920Z 29009KT 9999 FEW010 SCT025 BKN045 08/04 Q1020 NOSIG LOWW 230920Z 32017KT 9999 -SHRA FEW017 BKN020 09/07 Q1012 NOSIG LOAN 230900Z 33012G25KT 10KM SCT020CU BKN050SC LOXZ 230920Z 09006KT 20KM -SHRA SCT040SC BKN050SC 08/03 Q1012 TEMPO 300/15KT LSMA 230850Z VRB02KT 8000 RA FEW026 OVC032 07/06 Q1024 RMK BLU LFSB 230930Z 26011KT 9999 SCT013 BKN046 BKN083 11/08 Q1023 TEMPO 27010G20KT LSZB 230920Z 25004KT 200V330 9999 SCT035 BKN045 08/05 Q1024 NOSIG LSZC 230920Z VRB01KT 7000 -RA BKN009 BKN036 06/05 Q1024 LSMD 230850Z 28005KT 240V330 9999 FEW012 SCT017 OVC021 08/05 Q1023 RMK WHT LSME 230850Z VRB01KT 9999 -RA FEW013 SCT027 OVC032 07/06 Q1024 RERA RMK BLU LSZR 230920Z 27009KT 9999 SCT046 BKN070 09/05 Q1023 NOSIG RMK G LSGG 230920Z 21006KT 9999 -RA FEW009 BKN040 10/08 Q1026 NOSIG LSZG 230920Z 23008KT 7000 -RA BKN007 BKN013 08/07 Q1024 TEMPO 3000 LSGC 230920Z AUTO VRB03KT 9999 BKN007 05/04 Q1023 RERA LSZL 230850Z 07003KT 040V130 CAVOK 15/01 Q1016 RMK BLU LSZA 230920Z 36019KT CAVOK 17/M00 Q1015 NOSIG LSMM 230850Z 26006KT 240V320 9999 -RA SCT017 BKN023 OVC027 07/05 Q1024 RMK WHT LSMP 230850Z 22007KT 9999 -SHRA FEW022 BKN028 OVC038 08/06 Q1025 RMK BLU LSZS 230920Z VRB02KT 7000 -SN SCT036 BKN047 00/M03 Q1018 RMK H LSGS 230920Z VRB03KT 9999 FEW020 SCT050 BKN070 08/05 Q1024 LSZH 230920Z 23005KT 200V260 9999 FEW009 BKN012 BKN045 08/06 Q1023 TEMPO RADZ SCT012 LEAL 230930Z 07003KT 030V110 9999 FEW018 BKN024 BKN036 21/15 Q1026 NOSIG LEAM 230930Z 09007KT 060V130 9999 SCT025 23/17 Q1025 LEAS 230930Z VRB02KT CAVOK 14/07 Q1027 NOSIG LEBZ 230900Z 00000KT CAVOK 15/10 Q1025 LEBL 230930Z 34008KT 290V030 9999 FEW025 SCT030 17/09 Q1025 NOSIG LEBB 230930Z VRB01KT CAVOK 15/10 Q1027 NOSIG LEGR 230930Z 00000KT CAVOK 17/13 Q1026 LEIB 230930Z 06005KT 020V100 9999 FEW030 21/13 Q1025 NOSIG LEJR 230930Z 00000KT CAVOK 22/15 Q1023 LELN 230900Z 00000KT CAVOK 08/03 Q1029 LEMD 230930Z 25002KT CAVOK 12/06 Q1028 NOSIG LEMG 230930Z VRB01KT 9999 FEW020 BKN035 20/16 Q1025 BECMG 12007KT LEMH 230930Z 36013KT 320V030 9999 FEW032 18/10 Q1025 LELC 230900Z 02005KT 350V050 9999 FEW027 BKN035 21/17 Q1025 NOSIG LEPA 230930Z 00000KT 9999 FEW040 20/15 Q1025 NOSIG LERS 230930Z 00000KT 9999 FEW030 18/08 Q1026 LEXJ 230930Z VRB01KT CAVOK 14/10 Q1027 LEST 230930Z VRB01KT CAVOK 09/06 Q1028 NOSIG LEZL 230930Z 06009KT 030V100 CAVOK 21/14 Q1023 NOSIG LEVC 230930Z 28003KT 240V320 9999 SCT025 18/08 Q1026 NOSIG LEVD 230930Z 00000KT CAVOK 11/05 Q1029 LEVT 230930Z 26001KT 7000 OVC006 07/07 Q1029 LEZG 230930Z 30012KT CAVOK 15/06 Q1027 GCLP 230930Z 05009KT 020V080 9999 FEW014 SCT030 24/19 Q1019 NOSIG GCRR 230930Z 08008KT 9999 FEW020 SCT025 23/20 Q1019 GCXO 230930Z 11009KT 080V160 9999 SCT006 BKN013 18/17 Q1021 NOSIG GCTS 230930Z 08017KT 9999 FEW022 24/18 Q1019 NOSIG LPFR 230930Z 08008KT 030V120 CAVOK 22/13 Q1023 LPPT 230930Z 07007KT 030V100 CAVOK 17/09 Q1025 LPMA 230930Z 02009KT 9999 BKN015 SCT030 21/13 Q1023 LPPD 230930Z 21014KT 9999 FEW010 BKN030 21/19 Q1021 LPPR 230930Z 09006KT CAVOK 18/09 Q1026 LPPS 230930Z 06008KT 030V090 9999 BKN015 21/13 Q1023 LPAZ 230930Z 17011KT 9999 FEW024 BKN034 21/17 Q1022 LPST 230900Z VRB01KT CAVOK 14/10 Q1025 LIEA 230920Z 32007KT 290V360 9999 SCT045 18/07 Q1018 LIBD 230920Z 29006KT 250V330 9999 FEW025TCU SCT030 17/10 Q1006 LIME 230920Z 07005KT 040V140 CAVOK 15/04 Q1012 NOSIG LIPE 230920Z 27016KT CAVOK 15/01 Q1013 LIRN 230920Z 35007KT 320V120 9999 FEW030 17/11 Q1008 NOSIG LICC 230920Z 26016KT 9999 SCT060 22/09 Q1010 LIRA 230920Z 35016KT 9999 FEW040 15/05 Q1011 LIBC   LIEE 230920Z 33024KT 9999 SCT020 19/07 Q1017 LIPY 230850Z 22007KT 9999 FEW010 BKN030 13/10 Q1012 LIRF 230920Z 35017KT CAVOK 16/05 Q1012 NOSIG LIMJ 230920Z 07005KT 010V100 CAVOK 20/M04 Q1014 LICD 230850Z 32018KT 9999 FEW040 21/13 Q1017 LIML 230920Z 27006KT 240V350 CAVOK 18/M00 Q1013 NOSIG LIMC 230920Z 34012KT CAVOK 18/00 Q1015 NOSIG LIEO 230920Z 26012KT 230V290 CAVOK 20/07 Q1016 LICJ 230920Z 30023KT 9999 SCT020 20/11 Q1014 LIBP 230850Z 26007KT 220V280 4500 -RA BKN015 11/09 Q1012 LIRP 230915Z 12006KT CAVOK 13/08 Q1013 NOSIG LICR 230850Z 33007KT 290V360 9999 SCT050 20/14 Q1011 LIMF 230920Z 11006KT 070V150 CAVOK 17/M04 Q1015 LIRU 230850Z 35015KT CAVOK 15/06 Q1012 LIPZ 230920Z VRB03KT CAVOK 14/08 Q1011 NOSIG EETN 230920Z 09006KT 9999 FEW037 03/M01 Q1025 NOSIG EETU 230850Z AUTO 07009KT 9999 BKN007/// 00/M02 Q1023 EVRA 230920Z 09008KT 070V130 CAVOK 03/M01 Q1021 R18/090095 NOSIG EVLA 230920Z AUTO 08011KT 9999 FEW015/// 04/01 Q1018 EYKA 230920Z 07009KT 9999 OVC013 03/M00 Q1017 EYSA 230920Z 06010KT 9999 OVC004 M00/M00 Q1019 YLO2 TEMPO OVC005 YLO1 EYPA 230920Z 09008KT 9999 SCT034 BKN066 BKN110 04/02 Q1017 EYVI 230920Z 10008KT 070V130 9999 SCT010 SCT030 BKN100 02/M00 Q1017 NOSIG UMKK 230930Z 07005MPS 040V100 8000 OVC004 05/05 Q1014 R06/29//55 NOSIG RMK QBB140 OBST OBSC QFE760/1013 EKYT 230946Z 08011KT 9999 -RA BKN011 10/09 Q1016 EKAH 230920Z AUTO 08010KT 060V120 9999NDV BKN009/// 11/10 Q1015 EKBI 230920Z AUTO 06008KT 6000NDV FEW006/// OVC013/// 11/10 Q1013 EKRN 230920Z AUTO 08005KT 050V110 9999NDV SCT027/// BKN079/// 12/10 Q1014 EKEB 230920Z AUTO 08009KT 9999NDV SCT009/// BKN028/// 11/11 Q1012 EKKA 230937Z 08011KT 050V110 9999 FEW007 BKN010 11/10 Q1014 TEMPO 7000 BKN007 EKCH 230920Z 08010KT 9999 FEW008 SCT015 BKN045 11/09 Q1014 TEMPO BKN012 EKOD 230850Z 10006KT 9999 SCT007 BKN030 11/10 Q1012 EKRK 230920Z 09009KT 7000 -RA FEW003 SCT005 BKN008 10/09 Q1014 EKSP 230940Z 09007KT 060V120 8000 SCT005 SCT010 BKN022 11/10 Q1012 TEMPO 4000 -SHRA EKVD 230920Z 07009KT 4500 BR SCT006 BKN015 11/10 Q1012 ESTA 230920Z 09011KT 9999 BKN007 10/09 Q1015 ESNZ 230920Z 12016KT 9999 SCT009 OVC046 01/M00 Q1024 ESGP   ESGG 230920Z 08012KT 9999 -DZ SCT009 BKN014 03/02 Q1018 ESMT 230920Z 08011KT 9999 BKN010 09/07 Q1016 ESMQ 230920Z 05011KT 9999 FEW009 OVC011 07/06 Q1017 ESNQ 230920Z 19010KT 9999 BKN004 M06/M07 Q1026 ESPA 230920Z 31004KT 9999 SCT012 M02/M03 Q1031 ESMS 230920Z 08008KT 8000 DZ BKN007 10/09 Q1014 ESSL 230920Z 07012KT 9999 -RA SCT026 BKN038 06/03 Q1021 ESSA 230920Z 06009KT 9999 -SHRA BKN016 04/01 Q1023 NOSIG ESSB 230920Z 02006KT 9999 FEW014 BKN025 05/02 Q1023 ESKN 230920Z 03010KT 9999 VCSH FEW015 FEW031TCU BKN048 05/03 Q1022 ESNU 230920Z 03005KT 9999 SCT031 03/M00 Q1029 ESSV 230920Z 09016KT CAVOK 07/00 Q1019 ENAN 230920Z 19008KT CAVOK 03/M01 Q1025 ENAT 230850Z 16007KT CAVOK M01/M08 Q1026 RMK WIND 700FT 16010KT ENHF 230920Z VRB02G13KT CAVOK 02/M05 Q1024 RMK WIND 1254FT 23007KT ENDU 230920Z 00000KT CAVOK M05/M06 Q1026 NOSIG RMK WIND 1100FT 17008KT WIND 2200FT 16010KT ENBO 230920Z 09017KT CAVOK 04/M04 Q1025 NOSIG ENEV 230850Z 21003KT 150V260 CAVOK 02/M05 Q1026 RMK WIND 1400FT 15010KT ENBR 230920Z VRB01KT 9999 BKN055 10/04 Q1016 NOSIG RMK WIND 1200FT 16008KT ENFL 230920Z 10007KT 9999 FEW055 10/04 Q1016 ENGM 230920Z 02006KT 9999 SCT039 BKN050 02/M02 Q1023 NOSIG ENHD 230920Z 12007KT CAVOK 10/02 Q1016 ENCN 230920Z 04017G28KT 9999 BKN015 05/03 Q1018 ENTC 230920Z 21011KT CAVOK 02/M04 Q1025 NOSIG RMK WIND 2600FT 26007KT ENFB 230920Z AUTO 17023KT 9999NDV FEW019/// 12/08 Q1014 W///S4 ENSB 230920Z 23021G31KT 190V250 9999 -RA SCT020 BKN035 06/03 Q1008 TEMPO RA BKN012 RMK WIND 1400FT 24028G40KT ENNK   ENRO 230920Z 16012KT 9999 FEW030 BKN047 01/M05 Q1021 ENRY 230920Z 04007KT CAVOK 03/M00 Q1022 NOSIG ENZV 230920Z 09006KT 9999 FEW040 BKN070 10/00 Q1016 NOSIG ENVA 230920Z 15012KT CAVOK 07/M03 Q1020 NOSIG RMK WIND 670FT 17021KT ENAL 230920Z 17009KT 070V230 CAVOK 10/05 Q1015 EFET 230920Z AUTO 00000KT CAVOK M09/M10 Q1027 EFTP 230920Z 04005KT CAVOK 00/M02 Q1027 EFTU 230920Z AUTO 09011KT 9999 FEW014/// OVC051/// 02/M01 Q1026 BIAR 230939Z 16005KT 080V220 7000 -RA SCT027 OVC037 10/06 Q0995 BIEG 230900Z 24005KT 9999 -RA SCT025 BKN035 BKN050 09/07 Q0997 R04/290195 BIKF 230930Z 06015KT 9999 BKN029 OVC033 08/05 Q0989 BIRK 230900Z 06010KT 9999 -RA FEW030 SCT044 BKN070 08/03 Q0989 BGJN 230850Z 08004KT 020V120 9999 BKN180 M07/M15 Q1017 BGSF 230850Z AUTO 07012KT 9999NDV BKN017/// OVC020/// M12/M15 Q1018 BGKK 230850Z 23004KT 190V270 9999 FEW100 SCT200 01/M05 Q1004 BGBW 230850Z AUTO 03002KT 9999NDV FEW120/// M00/M06 Q1002 BGGH 230850Z 05014KT 9999 FEW200 M03/M08 Q1008 BGTL 230943Z AUTO 11022KT 4000 HZ SCT021 BKN035 OVC043 M06/M09 A2982 RMK AO2 VIS 4000V6000 SNE26SNB27E28 CIG 018 RWY26 SLP085 BGSS   EIDW 230930Z 23011KT 9999 FEW018 BKN110 14/13 Q1011 NOSIG EINN 230930Z 16007KT 9999 FEW020 BKN060 14/11 Q1011 NOSIG EICK 230930Z 23009KT 9999 BKN004 BKN090 13/13 Q1013 TEMPO 5000 EIKN 230930Z 20007KT 170V230 7000 -SHRA BKN004 BKN033 11/11 Q1009 BECMG 9999 BKN012 EPGD 230930Z 28008KT 9999 SCT007 BKN010 10/09 Q1013 EPKK 230930Z 31006KT 9999 -RA SCT017 BKN040 09/07 Q1011 EPKT 230930Z 34008KT 9999 FEW007 BKN008 08/07 Q1012 EPMO 230930Z 03005KT 9999 BKN006 09/09 Q1012 EPPO 230930Z 32005KT 9999 BKN004 10/09 Q1014 EPWA 230930Z 10005KT 5000 -DZ BR OVC004 08/08 Q1013 TEMPO BKN005 LGAV 230920Z 21011KT CAVOK 25/12 Q1008 NOSIG LGIR 230920Z 07006KT CAVOK 23/17 Q1011 NOSIG LGKO 230920Z 16008KT 9999 SCT018 23/16 Q1012 LGMK 230920Z /////KT 9999 FEW008 21/18 Q1009 LGRP 230920Z 11005KT 060V150 9999 FEW020 24/13 Q1011 NOSIG LGSA 230920Z 29012KT CAVOK 24/18 Q1010 LGSR 230850Z 22014KT 9999 SCT020 23/16 Q1010 RMK FEW080 FEW180 BLU LGTS 230920Z VRB02KT 6000 -RA FEW015 BKN025 18/15 Q1006 TEMPO RA LTAI 230920Z 14006KT 090V190 9999 SCT030 24/17 Q1013 NOSIG RMK RWY18C 14007KT 100V180 RWY36R 14007KT 100V170 RWY18L 14007KT 080V180 LTBA 230920Z 13006KT 060V180 CAVOK 20/12 Q1009 NOSIG RMK RWY17L 12005KT 090V150 RWY05 10005KT RWY23 12005KT 080V160 LTBJ 230920Z 16007KT 120V180 CAVOK 24/07 Q1010 NOSIG RMK RWY16 15011KT LTBS 230920Z 20011KT 9999 SCT030 24/15 Q1012 NOSIG RMK RWY19 18012KT LMML 230915Z 32019KT 9999 SCT030 22/13 Q1015 TEMPO 32022G32KT LLBG 230920Z VRB03KT 9999 FEW040 27/12 Q1012 NOSIG LLSD 230850Z 28006KT 9999 FEW040 25/15 Q1013 GMAD 230930Z VRB01KT CAVOK 23/15 Q1019 NOSIG GMMN 230930Z 02008KT 360V070 8000 SCT016 19/19 Q1021 NOGIG GMMX 230930Z VRB02KT 7000 NSC 25/11 Q1020 HECA 230930Z 31005KT 9999 SCT025 25/13 Q1013 NOSIG HEGN 230900Z 36012KT CAVOK 28/15 Q1011 NOSIG HELX 230900Z 00000KT 8000 NSC 28/15 Q1010 NOSIG HESH 230900Z 02011KT CAVOK 28/17 Q1010 NOSIG LBSF 230930Z 10012KT 7000 FEW010 SCT014 BKN021 13/12 Q1006 NOSIG LCLK 230930Z 12006KT 090V160 9999 FEW020 26/15 Q1012 NOSIG LDZA 230930Z 25007KT 9999 -RA FEW008 BKN040 09/07 Q1012 NOSIG LHBP 230930Z 34015KT 4500 RA BR SCT009 SCT013 OVC020 09/09 Q1005 TEMPO 6000 -RA BKN009 OVC030 LJLJ 230930Z VRB02KT 8000 SCT006 BKN070 08/06 Q1011 WS ALL RWY NOSIG LKPR 230930Z 27012KT 9999 FEW024 BKN042 10/06 Q1016 NOSIG LROP 230930Z 08013KT 9999 OVC017 15/13 Q1008 BECMG SCT015 BKN030 LYBE 230930Z 27017KT 9999 -RA BKN012 10/07 Q1006 NOSIG LZIB 230930Z 33015KT 9999 -RA FEW013 SCT019 BKN024 09/07 Q1011 NOSIG UKBB 230930Z 15006MPS 9999 SCT024 06/00 Q1018 R88/CLRD// NOSIG ULLI 230930Z 02003MPS 9999 SCT018 SCT036 03/M02 Q1024 R88/290050 NOSIG ULMM 230930Z 00000MPS 9999 FEW009 BKN033 01/M01 Q1028 R31/290150 NOSIG RMK OBST OBSC QFE763 UMKK 230930Z 07005MPS 040V100 8000 OVC004 05/05 Q1014 R06/29//55 NOSIG RMK QBB140 OBST OBSC QFE760/1013 UUEE 230930Z 33004MPS 9999 BKN019 00/M03 Q1020 R24R/190057 R24L/190057 NOSIG UUWW 230930Z 36005MPS 9999 BKN023CB 00/M04 Q1020 R06/290050 NOSIG
RocketRoute WX - rrwx.com weather for pilots